sensor_id;sensor_type;location;lat;lon;timestamp;P1;durP1;ratioP1;P2;durP2;ratioP2
74689;SDS011;63221;51.860;-2.188;2023-04-24T00:00:42;19.17;;;9.13;;
74689;SDS011;63221;51.860;-2.188;2023-04-24T00:03:10;19.65;;;10.88;;
74689;SDS011;63221;51.860;-2.188;2023-04-24T00:05:36;13.77;;;9.05;;
74689;SDS011;63221;51.860;-2.188;2023-04-24T00:08:01;14.90;;;8.67;;
74689;SDS011;63221;51.860;-2.188;2023-04-24T00:10:27;14.80;;;8.27;;
74689;SDS011;63221;51.860;-2.188;2023-04-24T00:12:52;14.73;;;7.63;;
74689;SDS011;63221;51.860;-2.188;2023-04-24T00:15:18;14.13;;;7.13;;
74689;SDS011;63221;51.860;-2.188;2023-04-24T00:17:43;12.70;;;7.30;;
74689;SDS011;63221;51.860;-2.188;2023-04-24T00:20:09;13.25;;;6.68;;
74689;SDS011;63221;51.860;-2.188;2023-04-24T00:22:35;10.13;;;6.43;;
74689;SDS011;63221;51.860;-2.188;2023-04-24T00:25:01;12.82;;;6.60;;
74689;SDS011;63221;51.860;-2.188;2023-04-24T00:27:26;12.03;;;6.50;;
74689;SDS011;63221;51.860;-2.188;2023-04-24T00:29:51;10.67;;;6.40;;
74689;SDS011;63221;51.860;-2.188;2023-04-24T00:32:17;9.07;;;5.57;;
74689;SDS011;63221;51.860;-2.188;2023-04-24T00:34:42;12.50;;;6.75;;
74689;SDS011;63221;51.860;-2.188;2023-04-24T00:37:08;10.83;;;6.67;;
74689;SDS011;63221;51.860;-2.188;2023-04-24T00:39:33;12.57;;;7.77;;
74689;SDS011;63221;51.860;-2.188;2023-04-24T00:41:59;11.55;;;6.38;;
74689;SDS011;63221;51.860;-2.188;2023-04-24T00:44:24;15.27;;;6.30;;
74689;SDS011;63221;51.860;-2.188;2023-04-24T00:46:50;11.67;;;6.40;;
74689;SDS011;63221;51.860;-2.188;2023-04-24T00:49:19;14.00;;;6.68;;
74689;SDS011;63221;51.860;-2.188;2023-04-24T00:51:47;10.15;;;5.95;;
74689;SDS011;63221;51.860;-2.188;2023-04-24T00:54:14;9.75;;;7.18;;
74689;SDS011;63221;51.860;-2.188;2023-04-24T00:56:40;15.37;;;7.07;;
74689;SDS011;63221;51.860;-2.188;2023-04-24T00:59:06;12.05;;;5.90;;
74689;SDS011;63221;51.860;-2.188;2023-04-24T01:01:32;12.00;;;6.83;;
74689;SDS011;63221;51.860;-2.188;2023-04-24T01:03:57;12.90;;;6.53;;
74689;SDS011;63221;51.860;-2.188;2023-04-24T01:06:23;10.90;;;6.53;;
74689;SDS011;63221;51.860;-2.188;2023-04-24T01:08:48;10.43;;;6.10;;
74689;SDS011;63221;51.860;-2.188;2023-04-24T01:11:14;10.35;;;5.70;;
74689;SDS011;63221;51.860;-2.188;2023-04-24T01:13:40;10.07;;;6.93;;
74689;SDS011;63221;51.860;-2.188;2023-04-24T01:16:06;11.23;;;7.05;;
74689;SDS011;63221;51.860;-2.188;2023-04-24T01:18:31;13.07;;;6.90;;
74689;SDS011;63221;51.860;-2.188;2023-04-24T01:20:58;14.00;;;6.35;;
74689;SDS011;63221;51.860;-2.188;2023-04-24T01:23:24;13.65;;;7.00;;
74689;SDS011;63221;51.860;-2.188;2023-04-24T01:25:50;12.63;;;6.67;;
74689;SDS011;63221;51.860;-2.188;2023-04-24T01:28:16;12.93;;;7.20;;
74689;SDS011;63221;51.860;-2.188;2023-04-24T01:30:42;13.02;;;6.78;;
74689;SDS011;63221;51.860;-2.188;2023-04-24T01:33:07;14.27;;;6.30;;
74689;SDS011;63221;51.860;-2.188;2023-04-24T01:35:33;13.87;;;6.90;;
74689;SDS011;63221;51.860;-2.188;2023-04-24T01:37:58;12.13;;;6.68;;
74689;SDS011;63221;51.860;-2.188;2023-04-24T01:40:23;12.97;;;6.63;;
74689;SDS011;63221;51.860;-2.188;2023-04-24T01:42:49;13.83;;;8.00;;
74689;SDS011;63221;51.860;-2.188;2023-04-24T01:45:14;14.37;;;7.67;;
74689;SDS011;63221;51.860;-2.188;2023-04-24T01:47:40;14.73;;;7.82;;
74689;SDS011;63221;51.860;-2.188;2023-04-24T01:50:06;14.70;;;6.90;;
74689;SDS011;63221;51.860;-2.188;2023-04-24T01:52:32;11.32;;;6.70;;
74689;SDS011;63221;51.860;-2.188;2023-04-24T01:55:04;13.48;;;6.68;;
74689;SDS011;63221;51.860;-2.188;2023-04-24T01:57:31;11.23;;;6.45;;
74689;SDS011;63221;51.860;-2.188;2023-04-24T01:59:56;9.27;;;5.07;;
74689;SDS011;63221;51.860;-2.188;2023-04-24T02:02:22;10.70;;;6.20;;
74689;SDS011;63221;51.860;-2.188;2023-04-24T02:04:49;10.18;;;5.63;;
74689;SDS011;63221;51.860;-2.188;2023-04-24T02:07:15;11.02;;;6.38;;
74689;SDS011;63221;51.860;-2.188;2023-04-24T02:09:40;11.67;;;5.43;;
74689;SDS011;63221;51.860;-2.188;2023-04-24T02:12:06;8.32;;;5.07;;
74689;SDS011;63221;51.860;-2.188;2023-04-24T02:14:31;10.60;;;5.70;;
74689;SDS011;63221;51.860;-2.188;2023-04-24T02:16:57;9.70;;;4.97;;
74689;SDS011;63221;51.860;-2.188;2023-04-24T02:19:22;12.95;;;6.53;;
74689;SDS011;63221;51.860;-2.188;2023-04-24T02:21:48;8.43;;;5.83;;
74689;SDS011;63221;51.860;-2.188;2023-04-24T02:24:13;9.33;;;6.13;;
74689;SDS011;63221;51.860;-2.188;2023-04-24T02:26:38;10.57;;;6.23;;
74689;SDS011;63221;51.860;-2.188;2023-04-24T02:29:04;12.13;;;6.18;;
74689;SDS011;63221;51.860;-2.188;2023-04-24T02:31:30;15.70;;;6.60;;
74689;SDS011;63221;51.860;-2.188;2023-04-24T02:33:55;13.93;;;6.27;;
74689;SDS011;63221;51.860;-2.188;2023-04-24T02:36:21;13.10;;;6.80;;
74689;SDS011;63221;51.860;-2.188;2023-04-24T02:38:46;12.30;;;6.70;;
74689;SDS011;63221;51.860;-2.188;2023-04-24T02:41:11;12.40;;;6.93;;
74689;SDS011;63221;51.860;-2.188;2023-04-24T02:43:37;11.33;;;6.40;;
74689;SDS011;63221;51.860;-2.188;2023-04-24T02:46:02;10.97;;;6.47;;
74689;SDS011;63221;51.860;-2.188;2023-04-24T02:48:27;12.23;;;6.80;;
74689;SDS011;63221;51.860;-2.188;2023-04-24T02:50:53;9.97;;;6.43;;
74689;SDS011;63221;51.860;-2.188;2023-04-24T02:53:18;10.27;;;5.60;;
74689;SDS011;63221;51.860;-2.188;2023-04-24T02:55:44;12.73;;;6.80;;
74689;SDS011;63221;51.860;-2.188;2023-04-24T02:58:10;9.15;;;6.03;;
74689;SDS011;63221;51.860;-2.188;2023-04-24T03:00:37;11.38;;;6.53;;
74689;SDS011;63221;51.860;-2.188;2023-04-24T03:03:03;10.13;;;5.97;;
74689;SDS011;63221;51.860;-2.188;2023-04-24T03:05:29;10.73;;;5.83;;
74689;SDS011;63221;51.860;-2.188;2023-04-24T03:07:55;10.23;;;5.97;;
74689;SDS011;63221;51.860;-2.188;2023-04-24T03:10:21;15.33;;;6.80;;
74689;SDS011;63221;51.860;-2.188;2023-04-24T03:12:47;9.65;;;5.93;;
74689;SDS011;63221;51.860;-2.188;2023-04-24T03:15:13;10.50;;;5.57;;
74689;SDS011;63221;51.860;-2.188;2023-04-24T03:17:38;10.80;;;6.30;;
74689;SDS011;63221;51.860;-2.188;2023-04-24T03:20:04;10.80;;;6.70;;
74689;SDS011;63221;51.860;-2.188;2023-04-24T03:22:30;10.70;;;6.30;;
74689;SDS011;63221;51.860;-2.188;2023-04-24T03:24:57;9.10;;;4.90;;
74689;SDS011;63221;51.860;-2.188;2023-04-24T03:27:23;10.13;;;5.13;;
74689;SDS011;63221;51.860;-2.188;2023-04-24T03:29:48;9.40;;;5.43;;
74689;SDS011;63221;51.860;-2.188;2023-04-24T03:32:18;8.50;;;4.47;;
74689;SDS011;63221;51.860;-2.188;2023-04-24T03:34:44;12.33;;;6.50;;
74689;SDS011;63221;51.860;-2.188;2023-04-24T03:37:09;9.32;;;5.00;;
74689;SDS011;63221;51.860;-2.188;2023-04-24T03:39:35;11.67;;;5.77;;
74689;SDS011;63221;51.860;-2.188;2023-04-24T03:42:00;10.83;;;5.57;;
74689;SDS011;63221;51.860;-2.188;2023-04-24T03:44:26;9.93;;;5.07;;
74689;SDS011;63221;51.860;-2.188;2023-04-24T03:46:51;10.23;;;5.53;;
74689;SDS011;63221;51.860;-2.188;2023-04-24T03:49:17;7.77;;;5.33;;
74689;SDS011;63221;51.860;-2.188;2023-04-24T03:51:42;8.80;;;4.93;;
74689;SDS011;63221;51.860;-2.188;2023-04-24T03:54:08;7.38;;;4.50;;
74689;SDS011;63221;51.860;-2.188;2023-04-24T03:56:33;9.17;;;5.30;;
74689;SDS011;63221;51.860;-2.188;2023-04-24T03:58:58;7.03;;;4.53;;
74689;SDS011;63221;51.860;-2.188;2023-04-24T04:01:24;9.47;;;5.33;;
74689;SDS011;63221;51.860;-2.188;2023-04-24T04:03:49;8.88;;;4.68;;
74689;SDS011;63221;51.860;-2.188;2023-04-24T04:06:15;8.43;;;5.00;;
74689;SDS011;63221;51.860;-2.188;2023-04-24T04:08:40;8.07;;;4.20;;
74689;SDS011;63221;51.860;-2.188;2023-04-24T04:11:06;9.03;;;4.77;;
74689;SDS011;63221;51.860;-2.188;2023-04-24T04:13:31;7.53;;;4.80;;
74689;SDS011;63221;51.860;-2.188;2023-04-24T04:15:56;8.82;;;5.03;;
74689;SDS011;63221;51.860;-2.188;2023-04-24T04:18:22;7.67;;;4.33;;
74689;SDS011;63221;51.860;-2.188;2023-04-24T04:20:47;6.97;;;4.67;;
74689;SDS011;63221;51.860;-2.188;2023-04-24T04:23:13;9.07;;;4.27;;
74689;SDS011;63221;51.860;-2.188;2023-04-24T04:25:38;7.90;;;4.30;;
74689;SDS011;63221;51.860;-2.188;2023-04-24T04:28:03;6.27;;;3.83;;
74689;SDS011;63221;51.860;-2.188;2023-04-24T04:30:29;7.87;;;4.67;;
74689;SDS011;63221;51.860;-2.188;2023-04-24T04:32:57;8.25;;;4.70;;
74689;SDS011;63221;51.860;-2.188;2023-04-24T04:35:22;8.80;;;4.20;;
74689;SDS011;63221;51.860;-2.188;2023-04-24T04:37:48;8.13;;;5.17;;
74689;SDS011;63221;51.860;-2.188;2023-04-24T04:40:13;9.83;;;5.47;;
74689;SDS011;63221;51.860;-2.188;2023-04-24T04:42:39;8.32;;;4.90;;
74689;SDS011;63221;51.860;-2.188;2023-04-24T04:45:07;7.90;;;4.47;;
74689;SDS011;63221;51.860;-2.188;2023-04-24T04:47:34;8.65;;;4.57;;
74689;SDS011;63221;51.860;-2.188;2023-04-24T04:49:59;7.35;;;4.90;;
74689;SDS011;63221;51.860;-2.188;2023-04-24T04:52:25;8.47;;;5.17;;
74689;SDS011;63221;51.860;-2.188;2023-04-24T04:54:51;11.07;;;5.93;;
74689;SDS011;63221;51.860;-2.188;2023-04-24T04:57:17;10.27;;;6.97;;
74689;SDS011;63221;51.860;-2.188;2023-04-24T04:59:42;11.27;;;5.50;;
74689;SDS011;63221;51.860;-2.188;2023-04-24T05:02:08;9.88;;;5.72;;
74689;SDS011;63221;51.860;-2.188;2023-04-24T05:04:34;8.33;;;5.27;;
74689;SDS011;63221;51.860;-2.188;2023-04-24T05:06:59;10.50;;;5.43;;
74689;SDS011;63221;51.860;-2.188;2023-04-24T05:09:25;9.43;;;6.00;;
74689;SDS011;63221;51.860;-2.188;2023-04-24T05:11:52;10.43;;;6.13;;
74689;SDS011;63221;51.860;-2.188;2023-04-24T05:14:18;8.02;;;5.07;;
74689;SDS011;63221;51.860;-2.188;2023-04-24T05:16:44;10.23;;;5.97;;
74689;SDS011;63221;51.860;-2.188;2023-04-24T05:19:09;8.07;;;5.37;;
74689;SDS011;63221;51.860;-2.188;2023-04-24T05:21:36;8.07;;;4.82;;
74689;SDS011;63221;51.860;-2.188;2023-04-24T05:24:02;8.70;;;5.40;;
74689;SDS011;63221;51.860;-2.188;2023-04-24T05:26:27;8.18;;;5.65;;
74689;SDS011;63221;51.860;-2.188;2023-04-24T05:28:53;7.70;;;5.00;;
74689;SDS011;63221;51.860;-2.188;2023-04-24T05:31:18;11.93;;;5.27;;
74689;SDS011;63221;51.860;-2.188;2023-04-24T05:33:44;11.20;;;5.13;;
74689;SDS011;63221;51.860;-2.188;2023-04-24T05:36:10;8.67;;;5.47;;
74689;SDS011;63221;51.860;-2.188;2023-04-24T05:38:35;8.93;;;5.83;;
74689;SDS011;63221;51.860;-2.188;2023-04-24T05:41:01;8.57;;;4.43;;
74689;SDS011;63221;51.860;-2.188;2023-04-24T05:43:26;8.07;;;4.82;;
74689;SDS011;63221;51.860;-2.188;2023-04-24T05:45:51;10.30;;;5.03;;
74689;SDS011;63221;51.860;-2.188;2023-04-24T05:48:18;8.32;;;5.30;;
74689;SDS011;63221;51.860;-2.188;2023-04-24T05:50:44;9.97;;;4.77;;
74689;SDS011;63221;51.860;-2.188;2023-04-24T05:53:09;8.13;;;5.43;;
74689;SDS011;63221;51.860;-2.188;2023-04-24T05:55:35;9.18;;;5.80;;
74689;SDS011;63221;51.860;-2.188;2023-04-24T05:58:01;9.07;;;6.30;;
74689;SDS011;63221;51.860;-2.188;2023-04-24T06:00:26;10.30;;;5.57;;
74689;SDS011;63221;51.860;-2.188;2023-04-24T06:02:53;10.88;;;6.15;;
74689;SDS011;63221;51.860;-2.188;2023-04-24T06:05:19;12.53;;;6.50;;
74689;SDS011;63221;51.860;-2.188;2023-04-24T06:07:44;7.57;;;5.20;;
74689;SDS011;63221;51.860;-2.188;2023-04-24T06:10:10;10.20;;;6.13;;
74689;SDS011;63221;51.860;-2.188;2023-04-24T06:12:35;12.27;;;6.77;;
74689;SDS011;63221;51.860;-2.188;2023-04-24T06:15:01;11.35;;;5.35;;
74689;SDS011;63221;51.860;-2.188;2023-04-24T06:17:27;9.90;;;5.40;;
74689;SDS011;63221;51.860;-2.188;2023-04-24T06:19:52;11.13;;;6.03;;
74689;SDS011;63221;51.860;-2.188;2023-04-24T06:22:18;9.07;;;5.37;;
74689;SDS011;63221;51.860;-2.188;2023-04-24T06:24:43;10.43;;;6.10;;
74689;SDS011;63221;51.860;-2.188;2023-04-24T06:27:09;10.77;;;6.10;;
74689;SDS011;63221;51.860;-2.188;2023-04-24T06:29:35;8.97;;;5.60;;
74689;SDS011;63221;51.860;-2.188;2023-04-24T06:32:01;9.82;;;5.55;;
74689;SDS011;63221;51.860;-2.188;2023-04-24T06:34:26;12.13;;;7.17;;
74689;SDS011;63221;51.860;-2.188;2023-04-24T06:36:51;10.33;;;5.60;;
74689;SDS011;63221;51.860;-2.188;2023-04-24T06:39:17;12.20;;;5.50;;
74689;SDS011;63221;51.860;-2.188;2023-04-24T06:41:42;11.27;;;6.38;;
74689;SDS011;63221;51.860;-2.188;2023-04-24T06:44:07;12.10;;;5.50;;
74689;SDS011;63221;51.860;-2.188;2023-04-24T06:46:33;10.03;;;6.17;;
74689;SDS011;63221;51.860;-2.188;2023-04-24T06:48:59;10.17;;;6.17;;
74689;SDS011;63221;51.860;-2.188;2023-04-24T06:51:25;11.27;;;6.20;;
74689;SDS011;63221;51.860;-2.188;2023-04-24T06:53:52;13.13;;;6.47;;
74689;SDS011;63221;51.860;-2.188;2023-04-24T06:56:18;11.30;;;6.72;;
74689;SDS011;63221;51.860;-2.188;2023-04-24T06:58:44;10.33;;;6.60;;
74689;SDS011;63221;51.860;-2.188;2023-04-24T07:01:10;9.23;;;5.68;;
74689;SDS011;63221;51.860;-2.188;2023-04-24T07:03:36;11.02;;;6.00;;
74689;SDS011;63221;51.860;-2.188;2023-04-24T07:06:01;8.63;;;6.13;;
74689;SDS011;63221;51.860;-2.188;2023-04-24T07:08:28;10.38;;;6.15;;
74689;SDS011;63221;51.860;-2.188;2023-04-24T07:10:55;10.13;;;5.63;;
74689;SDS011;63221;51.860;-2.188;2023-04-24T07:13:21;9.85;;;6.97;;
74689;SDS011;63221;51.860;-2.188;2023-04-24T07:15:47;9.57;;;5.63;;
74689;SDS011;63221;51.860;-2.188;2023-04-24T07:18:15;12.70;;;5.72;;
74689;SDS011;63221;51.860;-2.188;2023-04-24T07:20:40;9.87;;;5.07;;
74689;SDS011;63221;51.860;-2.188;2023-04-24T07:23:06;7.80;;;5.30;;
74689;SDS011;63221;51.860;-2.188;2023-04-24T07:25:31;8.47;;;4.87;;
74689;SDS011;63221;51.860;-2.188;2023-04-24T07:27:57;11.13;;;5.43;;
74689;SDS011;63221;51.860;-2.188;2023-04-24T07:30:22;7.60;;;4.57;;
74689;SDS011;63221;51.860;-2.188;2023-04-24T07:32:48;12.47;;;5.50;;
74689;SDS011;63221;51.860;-2.188;2023-04-24T07:35:13;8.00;;;3.70;;
74689;SDS011;63221;51.860;-2.188;2023-04-24T07:37:39;10.27;;;4.75;;
74689;SDS011;63221;51.860;-2.188;2023-04-24T07:40:05;6.63;;;4.50;;
74689;SDS011;63221;51.860;-2.188;2023-04-24T07:42:31;9.30;;;4.47;;
74689;SDS011;63221;51.860;-2.188;2023-04-24T07:44:59;8.90;;;4.95;;
74689;SDS011;63221;51.860;-2.188;2023-04-24T07:47:24;7.13;;;4.07;;
74689;SDS011;63221;51.860;-2.188;2023-04-24T07:49:50;7.37;;;3.77;;
74689;SDS011;63221;51.860;-2.188;2023-04-24T07:52:16;8.70;;;4.22;;
74689;SDS011;63221;51.860;-2.188;2023-04-24T07:54:41;7.47;;;3.77;;
74689;SDS011;63221;51.860;-2.188;2023-04-24T07:57:07;7.50;;;4.35;;
74689;SDS011;63221;51.860;-2.188;2023-04-24T07:59:33;6.67;;;4.93;;
74689;SDS011;63221;51.860;-2.188;2023-04-24T08:01:59;10.00;;;5.63;;
74689;SDS011;63221;51.860;-2.188;2023-04-24T08:04:26;10.13;;;5.05;;
74689;SDS011;63221;51.860;-2.188;2023-04-24T08:06:51;9.83;;;5.77;;
74689;SDS011;63221;51.860;-2.188;2023-04-24T08:09:17;8.17;;;5.13;;
74689;SDS011;63221;51.860;-2.188;2023-04-24T08:11:43;9.75;;;6.18;;
74689;SDS011;63221;51.860;-2.188;2023-04-24T08:14:08;8.03;;;4.73;;
74689;SDS011;63221;51.860;-2.188;2023-04-24T08:16:34;13.57;;;5.32;;
74689;SDS011;63221;51.860;-2.188;2023-04-24T08:18:59;12.23;;;5.57;;
74689;SDS011;63221;51.860;-2.188;2023-04-24T08:21:25;10.07;;;4.10;;
74689;SDS011;63221;51.860;-2.188;2023-04-24T08:23:52;10.32;;;4.13;;
74689;SDS011;63221;51.860;-2.188;2023-04-24T08:26:17;7.43;;;4.97;;
74689;SDS011;63221;51.860;-2.188;2023-04-24T08:28:42;11.43;;;5.10;;
74689;SDS011;63221;51.860;-2.188;2023-04-24T08:31:08;7.60;;;4.10;;
74689;SDS011;63221;51.860;-2.188;2023-04-24T08:33:33;9.73;;;3.63;;
74689;SDS011;63221;51.860;-2.188;2023-04-24T08:36:03;8.35;;;4.70;;
74689;SDS011;63221;51.860;-2.188;2023-04-24T08:38:29;11.93;;;4.47;;
74689;SDS011;63221;51.860;-2.188;2023-04-24T08:40:56;9.77;;;4.60;;
74689;SDS011;63221;51.860;-2.188;2023-04-24T08:43:23;6.72;;;3.28;;
74689;SDS011;63221;51.860;-2.188;2023-04-24T08:45:48;9.35;;;4.32;;
74689;SDS011;63221;51.860;-2.188;2023-04-24T08:48:14;8.53;;;4.00;;
74689;SDS011;63221;51.860;-2.188;2023-04-24T08:50:40;7.20;;;3.95;;
74689;SDS011;63221;51.860;-2.188;2023-04-24T08:53:08;9.73;;;3.90;;
74689;SDS011;63221;51.860;-2.188;2023-04-24T08:55:33;11.05;;;4.55;;
74689;SDS011;63221;51.860;-2.188;2023-04-24T08:57:59;9.63;;;4.32;;
74689;SDS011;63221;51.860;-2.188;2023-04-24T09:00:26;7.20;;;3.43;;
74689;SDS011;63221;51.860;-2.188;2023-04-24T09:02:52;10.13;;;4.20;;
74689;SDS011;63221;51.860;-2.188;2023-04-24T09:05:18;8.40;;;4.30;;
74689;SDS011;63221;51.860;-2.188;2023-04-24T09:07:48;9.45;;;4.28;;
74689;SDS011;63221;51.860;-2.188;2023-04-24T09:10:15;10.75;;;4.00;;
74689;SDS011;63221;51.860;-2.188;2023-04-24T09:12:41;7.13;;;3.00;;
74689;SDS011;63221;51.860;-2.188;2023-04-24T09:15:07;9.45;;;3.83;;
74689;SDS011;63221;51.860;-2.188;2023-04-24T09:17:33;6.60;;;3.30;;
74689;SDS011;63221;51.860;-2.188;2023-04-24T09:19:59;6.38;;;3.83;;
74689;SDS011;63221;51.860;-2.188;2023-04-24T09:22:24;7.40;;;4.00;;
74689;SDS011;63221;51.860;-2.188;2023-04-24T09:24:59;9.63;;;4.03;;
74689;SDS011;63221;51.860;-2.188;2023-04-24T09:27:29;4.60;;;3.10;;
74689;SDS011;63221;51.860;-2.188;2023-04-24T09:29:55;6.33;;;4.20;;
74689;SDS011;63221;51.860;-2.188;2023-04-24T09:32:21;6.82;;;3.20;;
74689;SDS011;63221;51.860;-2.188;2023-04-24T09:34:47;7.55;;;4.05;;
74689;SDS011;63221;51.860;-2.188;2023-04-24T09:37:29;13.00;;;4.60;;
74689;SDS011;63221;51.860;-2.188;2023-04-24T09:40:15;6.63;;;3.58;;
74689;SDS011;63221;51.860;-2.188;2023-04-24T09:43:00;7.85;;;3.80;;
74689;SDS011;63221;51.860;-2.188;2023-04-24T09:45:28;11.40;;;3.75;;
74689;SDS011;63221;51.860;-2.188;2023-04-24T09:48:00;9.63;;;3.72;;
74689;SDS011;63221;51.860;-2.188;2023-04-24T09:50:26;6.57;;;3.53;;
74689;SDS011;63221;51.860;-2.188;2023-04-24T09:52:59;10.47;;;4.13;;
74689;SDS011;63221;51.860;-2.188;2023-04-24T09:55:27;7.78;;;3.42;;
74689;SDS011;63221;51.860;-2.188;2023-04-24T09:57:59;7.70;;;3.55;;
74689;SDS011;63221;51.860;-2.188;2023-04-24T10:00:27;9.10;;;3.73;;
74689;SDS011;63221;51.860;-2.188;2023-04-24T10:05:31;7.30;;;2.88;;
74689;SDS011;63221;51.860;-2.188;2023-04-24T10:08:19;6.60;;;2.88;;
74689;SDS011;63221;51.860;-2.188;2023-04-24T10:10:44;8.52;;;4.20;;
74689;SDS011;63221;51.860;-2.188;2023-04-24T10:13:10;6.30;;;2.70;;
74689;SDS011;63221;51.860;-2.188;2023-04-24T10:15:37;10.05;;;2.78;;
74689;SDS011;63221;51.860;-2.188;2023-04-24T10:18:07;8.85;;;3.53;;
74689;SDS011;63221;51.860;-2.188;2023-04-24T10:20:33;6.38;;;2.65;;
74689;SDS011;63221;51.860;-2.188;2023-04-24T10:23:00;9.32;;;3.10;;
74689;SDS011;63221;51.860;-2.188;2023-04-24T10:25:27;7.70;;;3.23;;
74689;SDS011;63221;51.860;-2.188;2023-04-24T10:27:54;6.35;;;2.40;;
74689;SDS011;63221;51.860;-2.188;2023-04-24T10:30:24;12.07;;;3.67;;
74689;SDS011;63221;51.860;-2.188;2023-04-24T10:32:51;6.97;;;2.43;;
74689;SDS011;63221;51.860;-2.188;2023-04-24T10:35:17;7.13;;;2.47;;
74689;SDS011;63221;51.860;-2.188;2023-04-24T10:37:44;10.83;;;3.17;;
74689;SDS011;63221;51.860;-2.188;2023-04-24T10:40:11;8.88;;;2.28;;
74689;SDS011;63221;51.860;-2.188;2023-04-24T10:42:40;9.38;;;2.80;;
74689;SDS011;63221;51.860;-2.188;2023-04-24T10:45:27;7.85;;;2.90;;
74689;SDS011;63221;51.860;-2.188;2023-04-24T10:48:05;8.63;;;2.97;;
74689;SDS011;63221;51.860;-2.188;2023-04-24T10:53:15;8.55;;;3.03;;
74689;SDS011;63221;51.860;-2.188;2023-04-24T10:58:08;8.98;;;4.03;;
74689;SDS011;63221;51.860;-2.188;2023-04-24T11:00:36;6.93;;;2.90;;
74689;SDS011;63221;51.860;-2.188;2023-04-24T11:03:03;8.15;;;3.13;;
74689;SDS011;63221;51.860;-2.188;2023-04-24T11:08:39;8.57;;;3.50;;
74689;SDS011;63221;51.860;-2.188;2023-04-24T11:11:11;7.05;;;3.13;;
74689;SDS011;63221;51.860;-2.188;2023-04-24T11:16:54;8.32;;;3.67;;
74689;SDS011;63221;51.860;-2.188;2023-04-24T11:19:23;6.43;;;2.75;;
74689;SDS011;63221;51.860;-2.188;2023-04-24T11:21:58;7.57;;;3.40;;
74689;SDS011;63221;51.860;-2.188;2023-04-24T11:24:39;6.18;;;2.80;;
74689;SDS011;63221;51.860;-2.188;2023-04-24T11:27:15;8.35;;;3.40;;
74689;SDS011;63221;51.860;-2.188;2023-04-24T11:34:52;9.57;;;3.83;;
74689;SDS011;63221;51.860;-2.188;2023-04-24T11:37:18;10.18;;;4.13;;
74689;SDS011;63221;51.860;-2.188;2023-04-24T11:39:44;7.80;;;3.67;;
74689;SDS011;63221;51.860;-2.188;2023-04-24T11:42:09;7.30;;;3.22;;
74689;SDS011;63221;51.860;-2.188;2023-04-24T11:44:35;9.07;;;4.03;;
74689;SDS011;63221;51.860;-2.188;2023-04-24T11:47:04;7.68;;;4.10;;
74689;SDS011;63221;51.860;-2.188;2023-04-24T11:49:31;8.88;;;3.80;;
74689;SDS011;63221;51.860;-2.188;2023-04-24T11:51:57;9.00;;;4.43;;
74689;SDS011;63221;51.860;-2.188;2023-04-24T11:54:22;11.17;;;4.23;;
74689;SDS011;63221;51.860;-2.188;2023-04-24T11:56:48;9.03;;;4.23;;
74689;SDS011;63221;51.860;-2.188;2023-04-24T11:59:14;7.80;;;3.83;;
74689;SDS011;63221;51.860;-2.188;2023-04-24T12:01:46;8.90;;;4.05;;
74689;SDS011;63221;51.860;-2.188;2023-04-24T12:04:12;9.67;;;4.90;;
74689;SDS011;63221;51.860;-2.188;2023-04-24T12:06:38;7.90;;;3.85;;
74689;SDS011;63221;51.860;-2.188;2023-04-24T12:09:04;10.70;;;4.32;;
74689;SDS011;63221;51.860;-2.188;2023-04-24T12:11:29;9.30;;;4.83;;
74689;SDS011;63221;51.860;-2.188;2023-04-24T12:13:55;10.27;;;4.33;;
74689;SDS011;63221;51.860;-2.188;2023-04-24T12:16:20;8.05;;;4.00;;
74689;SDS011;63221;51.860;-2.188;2023-04-24T12:18:46;8.67;;;3.90;;
74689;SDS011;63221;51.860;-2.188;2023-04-24T12:21:21;8.20;;;4.07;;
74689;SDS011;63221;51.860;-2.188;2023-04-24T12:23:47;11.35;;;4.50;;
74689;SDS011;63221;51.860;-2.188;2023-04-24T12:26:19;7.00;;;3.58;;
74689;SDS011;63221;51.860;-2.188;2023-04-24T12:28:47;7.25;;;3.47;;
74689;SDS011;63221;51.860;-2.188;2023-04-24T12:31:16;9.03;;;3.90;;
74689;SDS011;63221;51.860;-2.188;2023-04-24T12:33:42;9.93;;;3.22;;
74689;SDS011;63221;51.860;-2.188;2023-04-24T12:36:11;9.13;;;3.65;;
74689;SDS011;63221;51.860;-2.188;2023-04-24T12:38:37;7.27;;;3.30;;
74689;SDS011;63221;51.860;-2.188;2023-04-24T12:43:32;7.22;;;3.47;;
74689;SDS011;63221;51.860;-2.188;2023-04-24T12:45:57;6.30;;;3.08;;
74689;SDS011;63221;51.860;-2.188;2023-04-24T12:48:24;11.40;;;4.03;;
74689;SDS011;63221;51.860;-2.188;2023-04-24T12:50:50;6.63;;;3.35;;
74689;SDS011;63221;51.860;-2.188;2023-04-24T12:53:15;8.83;;;3.50;;
74689;SDS011;63221;51.860;-2.188;2023-04-24T12:55:41;6.97;;;3.38;;
74689;SDS011;63221;51.860;-2.188;2023-04-24T12:58:07;8.10;;;2.87;;
74689;SDS011;63221;51.860;-2.188;2023-04-24T13:00:32;12.50;;;2.77;;
74689;SDS011;63221;51.860;-2.188;2023-04-24T13:02:58;6.77;;;3.30;;
74689;SDS011;63221;51.860;-2.188;2023-04-24T13:05:23;7.83;;;3.10;;
74689;SDS011;63221;51.860;-2.188;2023-04-24T13:07:49;9.30;;;3.20;;
74689;SDS011;63221;51.860;-2.188;2023-04-24T13:10:14;4.95;;;2.90;;
74689;SDS011;63221;51.860;-2.188;2023-04-24T13:12:39;7.40;;;2.27;;
74689;SDS011;63221;51.860;-2.188;2023-04-24T13:15:06;4.53;;;2.17;;
74689;SDS011;63221;51.860;-2.188;2023-04-24T13:17:31;5.18;;;2.22;;
74689;SDS011;63221;51.860;-2.188;2023-04-24T13:19:58;6.40;;;2.63;;
74689;SDS011;63221;51.860;-2.188;2023-04-24T13:22:23;3.93;;;2.20;;
74689;SDS011;63221;51.860;-2.188;2023-04-24T13:24:49;4.93;;;1.77;;
74689;SDS011;63221;51.860;-2.188;2023-04-24T13:27:15;6.27;;;2.07;;
74689;SDS011;63221;51.860;-2.188;2023-04-24T13:29:41;4.93;;;2.47;;
74689;SDS011;63221;51.860;-2.188;2023-04-24T13:32:06;3.57;;;2.10;;
74689;SDS011;63221;51.860;-2.188;2023-04-24T13:34:32;6.05;;;2.45;;
74689;SDS011;63221;51.860;-2.188;2023-04-24T13:36:59;2.72;;;1.80;;
74689;SDS011;63221;51.860;-2.188;2023-04-24T13:39:25;4.20;;;2.03;;
74689;SDS011;63221;51.860;-2.188;2023-04-24T13:41:51;3.60;;;2.45;;
74689;SDS011;63221;51.860;-2.188;2023-04-24T13:44:16;4.13;;;1.87;;
74689;SDS011;63221;51.860;-2.188;2023-04-24T13:46:43;6.78;;;3.47;;
74689;SDS011;63221;51.860;-2.188;2023-04-24T13:49:10;5.68;;;2.08;;
74689;SDS011;63221;51.860;-2.188;2023-04-24T13:51:36;4.53;;;2.05;;
74689;SDS011;63221;51.860;-2.188;2023-04-24T13:54:02;4.27;;;2.07;;
74689;SDS011;63221;51.860;-2.188;2023-04-24T13:56:27;5.47;;;2.67;;
74689;SDS011;63221;51.860;-2.188;2023-04-24T13:58:53;3.90;;;2.20;;
74689;SDS011;63221;51.860;-2.188;2023-04-24T14:01:21;6.18;;;2.33;;
74689;SDS011;63221;51.860;-2.188;2023-04-24T14:03:50;4.75;;;2.53;;
74689;SDS011;63221;51.860;-2.188;2023-04-24T14:06:16;3.92;;;1.42;;
74689;SDS011;63221;51.860;-2.188;2023-04-24T14:08:42;6.07;;;2.22;;
74689;SDS011;63221;51.860;-2.188;2023-04-24T14:11:07;3.07;;;1.60;;
74689;SDS011;63221;51.860;-2.188;2023-04-24T14:13:33;5.43;;;1.80;;
74689;SDS011;63221;51.860;-2.188;2023-04-24T14:16:00;2.67;;;1.20;;
74689;SDS011;63221;51.860;-2.188;2023-04-24T14:18:26;2.50;;;1.50;;
74689;SDS011;63221;51.860;-2.188;2023-04-24T14:20:54;2.55;;;1.33;;
74689;SDS011;63221;51.860;-2.188;2023-04-24T14:23:20;3.75;;;1.55;;
74689;SDS011;63221;51.860;-2.188;2023-04-24T14:25:45;4.27;;;2.40;;
74689;SDS011;63221;51.860;-2.188;2023-04-24T14:28:13;3.15;;;1.48;;
74689;SDS011;63221;51.860;-2.188;2023-04-24T14:30:38;3.40;;;1.10;;
74689;SDS011;63221;51.860;-2.188;2023-04-24T14:33:05;4.82;;;1.70;;
74689;SDS011;63221;51.860;-2.188;2023-04-24T14:35:31;4.23;;;2.00;;
74689;SDS011;63221;51.860;-2.188;2023-04-24T14:37:59;2.75;;;1.50;;
74689;SDS011;63221;51.860;-2.188;2023-04-24T14:40:24;2.80;;;1.43;;
74689;SDS011;63221;51.860;-2.188;2023-04-24T14:42:49;2.65;;;1.45;;
74689;SDS011;63221;51.860;-2.188;2023-04-24T14:45:15;2.53;;;1.47;;